sensor_id;sensor_type;location;lat;lon;timestamp;temperature;humidity
25933;DHT22;13731;51.166;4.474;2023-04-24T00:00:11;9.80;63.40
25933;DHT22;13731;51.166;4.474;2023-04-24T00:02:41;9.90;85.30
25933;DHT22;13731;51.166;4.474;2023-04-24T00:05:10;9.90;81.50
25933;DHT22;13731;51.166;4.474;2023-04-24T00:07:37;10.00;29.40
25933;DHT22;13731;51.166;4.474;2023-04-24T00:10:03;10.00;21.20
25933;DHT22;13731;51.166;4.474;2023-04-24T00:12:29;10.10;2.50
25933;DHT22;13731;51.166;4.474;2023-04-24T00:14:55;10.10;1.00
25933;DHT22;13731;51.166;4.474;2023-04-24T00:17:20;9.90;1.00
25933;DHT22;13731;51.166;4.474;2023-04-24T00:19:47;10.10;1.00
25933;DHT22;13731;51.166;4.474;2023-04-24T00:22:14;10.10;1.00
25933;DHT22;13731;51.166;4.474;2023-04-24T00:24:40;10.10;1.00
25933;DHT22;13731;51.166;4.474;2023-04-24T00:27:06;10.10;1.00
25933;DHT22;13731;51.166;4.474;2023-04-24T00:29:32;10.00;1.00
25933;DHT22;13731;51.166;4.474;2023-04-24T00:31:58;10.10;1.00
25933;DHT22;13731;51.166;4.474;2023-04-24T00:34:24;10.00;1.00
25933;DHT22;13731;51.166;4.474;2023-04-24T00:36:49;10.10;1.00
25933;DHT22;13731;51.166;4.474;2023-04-24T00:39:21;10.10;1.00
25933;DHT22;13731;51.166;4.474;2023-04-24T00:41:48;10.10;1.00
25933;DHT22;13731;51.166;4.474;2023-04-24T00:44:15;10.00;1.00
25933;DHT22;13731;51.166;4.474;2023-04-24T00:46:41;10.10;1.00
25933;DHT22;13731;51.166;4.474;2023-04-24T00:49:07;10.00;1.00
25933;DHT22;13731;51.166;4.474;2023-04-24T00:51:33;10.10;1.00
25933;DHT22;13731;51.166;4.474;2023-04-24T00:54:00;10.20;1.00
25933;DHT22;13731;51.166;4.474;2023-04-24T00:56:28;10.00;1.00
25933;DHT22;13731;51.166;4.474;2023-04-24T00:58:54;9.90;1.00
25933;DHT22;13731;51.166;4.474;2023-04-24T01:01:21;9.90;1.00
25933;DHT22;13731;51.166;4.474;2023-04-24T01:03:49;9.90;1.00
25933;DHT22;13731;51.166;4.474;2023-04-24T01:06:16;10.10;1.00
25933;DHT22;13731;51.166;4.474;2023-04-24T01:08:43;10.10;1.00
25933;DHT22;13731;51.166;4.474;2023-04-24T01:11:11;10.10;1.00
25933;DHT22;13731;51.166;4.474;2023-04-24T01:13:37;10.00;1.00
25933;DHT22;13731;51.166;4.474;2023-04-24T01:16:04;9.90;1.00
25933;DHT22;13731;51.166;4.474;2023-04-24T01:18:29;9.90;1.00
25933;DHT22;13731;51.166;4.474;2023-04-24T01:20:59;9.80;1.00
25933;DHT22;13731;51.166;4.474;2023-04-24T01:23:27;9.80;1.00
25933;DHT22;13731;51.166;4.474;2023-04-24T01:25:53;9.70;1.00
25933;DHT22;13731;51.166;4.474;2023-04-24T01:28:19;9.60;1.00
25933;DHT22;13731;51.166;4.474;2023-04-24T01:30:46;9.50;29.40
25933;DHT22;13731;51.166;4.474;2023-04-24T01:33:11;9.60;40.30
25933;DHT22;13731;51.166;4.474;2023-04-24T01:35:38;9.70;1.50
25933;DHT22;13731;51.166;4.474;2023-04-24T01:38:04;9.80;1.00
25933;DHT22;13731;51.166;4.474;2023-04-24T01:40:31;9.80;1.00
25933;DHT22;13731;51.166;4.474;2023-04-24T01:42:58;9.70;1.00
25933;DHT22;13731;51.166;4.474;2023-04-24T01:45:24;9.70;1.00
25933;DHT22;13731;51.166;4.474;2023-04-24T01:47:50;9.70;1.00
25933;DHT22;13731;51.166;4.474;2023-04-24T01:50:17;9.70;1.00
25933;DHT22;13731;51.166;4.474;2023-04-24T01:52:43;9.70;1.00
25933;DHT22;13731;51.166;4.474;2023-04-24T01:55:09;9.80;1.00
25933;DHT22;13731;51.166;4.474;2023-04-24T01:57:35;9.90;1.00
25933;DHT22;13731;51.166;4.474;2023-04-24T02:00:03;9.80;1.00
25933;DHT22;13731;51.166;4.474;2023-04-24T02:02:39;9.90;1.00
25933;DHT22;13731;51.166;4.474;2023-04-24T02:05:07;9.90;1.00
25933;DHT22;13731;51.166;4.474;2023-04-24T02:07:35;9.90;1.00
25933;DHT22;13731;51.166;4.474;2023-04-24T02:10:02;9.80;1.00
25933;DHT22;13731;51.166;4.474;2023-04-24T02:12:30;9.80;1.00
25933;DHT22;13731;51.166;4.474;2023-04-24T02:14:55;9.80;1.00
25933;DHT22;13731;51.166;4.474;2023-04-24T02:17:21;9.80;1.00
25933;DHT22;13731;51.166;4.474;2023-04-24T02:19:48;9.70;1.00
25933;DHT22;13731;51.166;4.474;2023-04-24T02:22:13;9.80;1.00
25933;DHT22;13731;51.166;4.474;2023-04-24T02:24:40;9.70;1.00
25933;DHT22;13731;51.166;4.474;2023-04-24T02:27:06;9.70;1.00
25933;DHT22;13731;51.166;4.474;2023-04-24T02:29:32;9.70;1.00
25933;DHT22;13731;51.166;4.474;2023-04-24T02:31:58;9.60;1.00
25933;DHT22;13731;51.166;4.474;2023-04-24T02:34:23;9.60;1.00
25933;DHT22;13731;51.166;4.474;2023-04-24T02:36:49;9.50;1.00
25933;DHT22;13731;51.166;4.474;2023-04-24T02:39:15;9.50;1.00
25933;DHT22;13731;51.166;4.474;2023-04-24T02:41:44;9.50;1.00
25933;DHT22;13731;51.166;4.474;2023-04-24T02:44:10;9.40;1.00
25933;DHT22;13731;51.166;4.474;2023-04-24T02:46:36;9.20;1.00
25933;DHT22;13731;51.166;4.474;2023-04-24T02:49:01;9.20;1.00
25933;DHT22;13731;51.166;4.474;2023-04-24T02:51:28;9.20;1.00
25933;DHT22;13731;51.166;4.474;2023-04-24T02:53:55;9.20;1.00
25933;DHT22;13731;51.166;4.474;2023-04-24T02:56:21;9.20;9.30
25933;DHT22;13731;51.166;4.474;2023-04-24T02:58:47;9.20;31.30
25933;DHT22;13731;51.166;4.474;2023-04-24T03:01:12;9.10;94.80
25933;DHT22;13731;51.166;4.474;2023-04-24T03:03:39;9.10;99.90
25933;DHT22;13731;51.166;4.474;2023-04-24T03:06:05;9.10;99.90
25933;DHT22;13731;51.166;4.474;2023-04-24T03:08:34;9.00;99.90
25933;DHT22;13731;51.166;4.474;2023-04-24T03:11:00;9.00;99.90
25933;DHT22;13731;51.166;4.474;2023-04-24T03:13:26;9.00;99.90
25933;DHT22;13731;51.166;4.474;2023-04-24T03:15:52;8.90;99.90
25933;DHT22;13731;51.166;4.474;2023-04-24T03:18:19;9.00;99.90
25933;DHT22;13731;51.166;4.474;2023-04-24T03:20:47;9.00;99.90
25933;DHT22;13731;51.166;4.474;2023-04-24T03:23:13;9.00;99.90
25933;DHT22;13731;51.166;4.474;2023-04-24T03:25:39;9.00;99.90
25933;DHT22;13731;51.166;4.474;2023-04-24T03:28:06;8.90;99.90
25933;DHT22;13731;51.166;4.474;2023-04-24T03:30:52;8.80;99.90
25933;DHT22;13731;51.166;4.474;2023-04-24T03:33:20;9.00;99.90
25933;DHT22;13731;51.166;4.474;2023-04-24T03:35:57;9.10;99.90
25933;DHT22;13731;51.166;4.474;2023-04-24T03:38:24;9.10;99.90
25933;DHT22;13731;51.166;4.474;2023-04-24T03:41:05;9.20;99.90
25933;DHT22;13731;51.166;4.474;2023-04-24T03:43:39;9.10;99.90
25933;DHT22;13731;51.166;4.474;2023-04-24T03:46:06;9.00;99.90
25933;DHT22;13731;51.166;4.474;2023-04-24T03:48:38;9.10;99.90
25933;DHT22;13731;51.166;4.474;2023-04-24T03:51:05;9.00;99.90
25933;DHT22;13731;51.166;4.474;2023-04-24T03:53:33;9.10;99.90
25933;DHT22;13731;51.166;4.474;2023-04-24T03:55:59;9.10;99.90
25933;DHT22;13731;51.166;4.474;2023-04-24T03:58:25;9.10;99.90
25933;DHT22;13731;51.166;4.474;2023-04-24T04:00:53;9.10;99.90
25933;DHT22;13731;51.166;4.474;2023-04-24T04:03:48;9.10;99.90
25933;DHT22;13731;51.166;4.474;2023-04-24T04:06:17;9.00;99.90
25933;DHT22;13731;51.166;4.474;2023-04-24T04:08:45;9.00;99.90
25933;DHT22;13731;51.166;4.474;2023-04-24T04:11:12;9.10;99.90
25933;DHT22;13731;51.166;4.474;2023-04-24T04:13:38;9.20;99.90
25933;DHT22;13731;51.166;4.474;2023-04-24T04:16:04;9.20;99.90
25933;DHT22;13731;51.166;4.474;2023-04-24T04:18:31;9.20;99.90
25933;DHT22;13731;51.166;4.474;2023-04-24T04:20:57;9.10;99.90
25933;DHT22;13731;51.166;4.474;2023-04-24T04:23:23;9.00;99.90
25933;DHT22;13731;51.166;4.474;2023-04-24T04:26:01;9.00;99.90
25933;DHT22;13731;51.166;4.474;2023-04-24T04:28:39;9.00;99.90
25933;DHT22;13731;51.166;4.474;2023-04-24T04:31:05;9.00;99.90
25933;DHT22;13731;51.166;4.474;2023-04-24T04:33:31;9.00;99.90
25933;DHT22;13731;51.166;4.474;2023-04-24T04:35:57;8.90;99.90
25933;DHT22;13731;51.166;4.474;2023-04-24T04:38:26;9.00;99.90
25933;DHT22;13731;51.166;4.474;2023-04-24T04:41:08;8.90;99.90
25933;DHT22;13731;51.166;4.474;2023-04-24T04:43:35;9.00;99.90
25933;DHT22;13731;51.166;4.474;2023-04-24T04:46:02;9.00;99.90
25933;DHT22;13731;51.166;4.474;2023-04-24T04:48:31;8.90;99.90
25933;DHT22;13731;51.166;4.474;2023-04-24T04:50:59;9.00;99.90
25933;DHT22;13731;51.166;4.474;2023-04-24T04:53:26;9.00;99.90
25933;DHT22;13731;51.166;4.474;2023-04-24T04:55:52;8.90;99.90
25933;DHT22;13731;51.166;4.474;2023-04-24T04:58:19;8.70;99.90
25933;DHT22;13731;51.166;4.474;2023-04-24T05:00:49;8.70;99.90
25933;DHT22;13731;51.166;4.474;2023-04-24T05:03:35;8.60;99.90
25933;DHT22;13731;51.166;4.474;2023-04-24T05:06:06;8.70;99.90
25933;DHT22;13731;51.166;4.474;2023-04-24T05:08:35;8.80;99.90
25933;DHT22;13731;51.166;4.474;2023-04-24T05:11:02;8.90;99.90
25933;DHT22;13731;51.166;4.474;2023-04-24T05:13:29;8.90;99.90
25933;DHT22;13731;51.166;4.474;2023-04-24T05:15:55;8.80;99.90
25933;DHT22;13731;51.166;4.474;2023-04-24T05:18:21;8.70;99.90
25933;DHT22;13731;51.166;4.474;2023-04-24T05:20:48;8.70;99.90
25933;DHT22;13731;51.166;4.474;2023-04-24T05:23:14;8.70;99.90
25933;DHT22;13731;51.166;4.474;2023-04-24T05:25:43;8.60;99.90
25933;DHT22;13731;51.166;4.474;2023-04-24T05:28:11;8.60;99.90
25933;DHT22;13731;51.166;4.474;2023-04-24T05:30:38;8.70;99.90
25933;DHT22;13731;51.166;4.474;2023-04-24T05:33:04;8.70;99.90
25933;DHT22;13731;51.166;4.474;2023-04-24T05:35:32;8.60;99.90
25933;DHT22;13731;51.166;4.474;2023-04-24T05:37:58;8.60;99.90
25933;DHT22;13731;51.166;4.474;2023-04-24T05:40:24;8.60;99.90
25933;DHT22;13731;51.166;4.474;2023-04-24T05:42:50;8.60;99.90
25933;DHT22;13731;51.166;4.474;2023-04-24T05:45:16;8.60;67.20
25933;DHT22;13731;51.166;4.474;2023-04-24T05:47:43;8.50;54.20
25933;DHT22;13731;51.166;4.474;2023-04-24T05:50:10;8.60;26.00
25933;DHT22;13731;51.166;4.474;2023-04-24T05:52:36;8.50;30.00
25933;DHT22;13731;51.166;4.474;2023-04-24T05:55:08;8.50;78.70
25933;DHT22;13731;51.166;4.474;2023-04-24T05:57:36;8.60;95.60
25933;DHT22;13731;51.166;4.474;2023-04-24T06:00:04;8.50;99.90
25933;DHT22;13731;51.166;4.474;2023-04-24T06:02:39;8.50;99.90
25933;DHT22;13731;51.166;4.474;2023-04-24T06:05:08;8.50;99.90
25933;DHT22;13731;51.166;4.474;2023-04-24T06:07:34;8.60;99.90
25933;DHT22;13731;51.166;4.474;2023-04-24T06:10:03;8.70;99.90
25933;DHT22;13731;51.166;4.474;2023-04-24T06:12:36;8.70;99.90
25933;DHT22;13731;51.166;4.474;2023-04-24T06:15:07;8.70;99.90
25933;DHT22;13731;51.166;4.474;2023-04-24T06:18:05;8.70;99.90
25933;DHT22;13731;51.166;4.474;2023-04-24T06:20:32;8.70;99.90
25933;DHT22;13731;51.166;4.474;2023-04-24T06:22:58;8.90;99.90
25933;DHT22;13731;51.166;4.474;2023-04-24T06:25:25;8.80;99.90
25933;DHT22;13731;51.166;4.474;2023-04-24T06:27:52;8.80;99.90
25933;DHT22;13731;51.166;4.474;2023-04-24T06:30:18;8.80;99.90
25933;DHT22;13731;51.166;4.474;2023-04-24T06:32:43;8.90;99.90
25933;DHT22;13731;51.166;4.474;2023-04-24T06:35:09;9.10;99.90
25933;DHT22;13731;51.166;4.474;2023-04-24T06:37:40;9.00;99.90
25933;DHT22;13731;51.166;4.474;2023-04-24T06:40:07;9.00;99.90
25933;DHT22;13731;51.166;4.474;2023-04-24T06:42:33;9.00;99.90
25933;DHT22;13731;51.166;4.474;2023-04-24T06:45:02;9.10;99.90
25933;DHT22;13731;51.166;4.474;2023-04-24T06:47:27;9.10;99.90
25933;DHT22;13731;51.166;4.474;2023-04-24T06:49:53;9.20;99.90
25933;DHT22;13731;51.166;4.474;2023-04-24T06:52:20;9.20;99.90
25933;DHT22;13731;51.166;4.474;2023-04-24T06:54:46;9.40;99.90
25933;DHT22;13731;51.166;4.474;2023-04-24T06:57:12;9.30;99.90
25933;DHT22;13731;51.166;4.474;2023-04-24T06:59:38;9.20;99.90
25933;DHT22;13731;51.166;4.474;2023-04-24T07:02:04;9.20;99.90
25933;DHT22;13731;51.166;4.474;2023-04-24T07:04:30;9.10;99.90
25933;DHT22;13731;51.166;4.474;2023-04-24T07:06:56;9.30;99.90
25933;DHT22;13731;51.166;4.474;2023-04-24T07:09:24;9.20;99.90
25933;DHT22;13731;51.166;4.474;2023-04-24T07:11:53;9.10;99.90
25933;DHT22;13731;51.166;4.474;2023-04-24T07:14:19;9.20;99.90
25933;DHT22;13731;51.166;4.474;2023-04-24T07:16:45;9.10;99.90
25933;DHT22;13731;51.166;4.474;2023-04-24T07:19:13;9.20;99.90
25933;DHT22;13731;51.166;4.474;2023-04-24T07:21:39;9.20;99.90
25933;DHT22;13731;51.166;4.474;2023-04-24T07:24:05;9.20;99.90
25933;DHT22;13731;51.166;4.474;2023-04-24T07:26:34;9.40;99.90
25933;DHT22;13731;51.166;4.474;2023-04-24T07:29:00;9.40;96.50
25933;DHT22;13731;51.166;4.474;2023-04-24T07:31:26;9.50;40.50
25933;DHT22;13731;51.166;4.474;2023-04-24T07:33:52;9.40;30.40
25933;DHT22;13731;51.166;4.474;2023-04-24T07:36:17;9.40;30.60
25933;DHT22;13731;51.166;4.474;2023-04-24T07:38:47;9.60;1.00
25933;DHT22;13731;51.166;4.474;2023-04-24T07:41:13;9.60;1.00
25933;DHT22;13731;51.166;4.474;2023-04-24T07:43:39;9.50;1.00
25933;DHT22;13731;51.166;4.474;2023-04-24T07:46:06;9.60;1.00
25933;DHT22;13731;51.166;4.474;2023-04-24T07:48:32;9.60;1.00
25933;DHT22;13731;51.166;4.474;2023-04-24T07:50:58;9.70;1.00
25933;DHT22;13731;51.166;4.474;2023-04-24T07:53:24;9.70;1.00
25933;DHT22;13731;51.166;4.474;2023-04-24T07:55:50;9.70;1.00
25933;DHT22;13731;51.166;4.474;2023-04-24T07:58:15;9.70;1.00
25933;DHT22;13731;51.166;4.474;2023-04-24T08:00:41;9.90;99.90
25933;DHT22;13731;51.166;4.474;2023-04-24T08:03:07;9.90;99.90
25933;DHT22;13731;51.166;4.474;2023-04-24T08:05:33;10.00;99.90
25933;DHT22;13731;51.166;4.474;2023-04-24T08:07:59;10.40;99.90
25933;DHT22;13731;51.166;4.474;2023-04-24T08:10:25;10.40;99.90
25933;DHT22;13731;51.166;4.474;2023-04-24T08:12:51;10.50;25.40
25933;DHT22;13731;51.166;4.474;2023-04-24T08:15:17;10.20;99.90
25933;DHT22;13731;51.166;4.474;2023-04-24T08:17:44;10.10;1.00
25933;DHT22;13731;51.166;4.474;2023-04-24T08:20:11;9.90;99.90
25933;DHT22;13731;51.166;4.474;2023-04-24T08:22:43;9.70;99.90
25933;DHT22;13731;51.166;4.474;2023-04-24T08:25:10;9.70;1.00
25933;DHT22;13731;51.166;4.474;2023-04-24T08:27:36;9.60;99.90
25933;DHT22;13731;51.166;4.474;2023-04-24T08:30:03;9.60;1.00
25933;DHT22;13731;51.166;4.474;2023-04-24T08:32:29;9.80;99.90
25933;DHT22;13731;51.166;4.474;2023-04-24T08:34:56;9.90;99.90
25933;DHT22;13731;51.166;4.474;2023-04-24T08:37:23;9.90;99.90
25933;DHT22;13731;51.166;4.474;2023-04-24T08:39:52;9.80;99.90
25933;DHT22;13731;51.166;4.474;2023-04-24T08:42:18;9.80;99.90
25933;DHT22;13731;51.166;4.474;2023-04-24T08:44:44;9.90;99.90
25933;DHT22;13731;51.166;4.474;2023-04-24T08:47:11;9.90;99.90
25933;DHT22;13731;51.166;4.474;2023-04-24T08:49:38;10.10;99.90
25933;DHT22;13731;51.166;4.474;2023-04-24T08:52:07;10.30;1.00
25933;DHT22;13731;51.166;4.474;2023-04-24T08:54:34;10.50;99.90
25933;DHT22;13731;51.166;4.474;2023-04-24T08:57:01;10.60;99.90
25933;DHT22;13731;51.166;4.474;2023-04-24T08:59:30;10.70;20.60
25933;DHT22;13731;51.166;4.474;2023-04-24T09:01:56;10.90;1.00
25933;DHT22;13731;51.166;4.474;2023-04-24T09:04:23;10.90;99.90
25933;DHT22;13731;51.166;4.474;2023-04-24T09:06:55;10.80;1.00
25933;DHT22;13731;51.166;4.474;2023-04-24T09:09:23;10.90;1.00
25933;DHT22;13731;51.166;4.474;2023-04-24T09:11:50;10.70;1.00
25933;DHT22;13731;51.166;4.474;2023-04-24T09:14:17;10.60;99.90
25933;DHT22;13731;51.166;4.474;2023-04-24T09:16:43;10.60;99.90
25933;DHT22;13731;51.166;4.474;2023-04-24T09:19:09;10.40;99.90
25933;DHT22;13731;51.166;4.474;2023-04-24T09:21:35;10.10;99.90
25933;DHT22;13731;51.166;4.474;2023-04-24T09:24:06;10.00;1.00
25933;DHT22;13731;51.166;4.474;2023-04-24T09:26:35;10.20;1.00
25933;DHT22;13731;51.166;4.474;2023-04-24T09:29:01;10.40;99.90
25933;DHT22;13731;51.166;4.474;2023-04-24T09:31:28;10.70;99.90
25933;DHT22;13731;51.166;4.474;2023-04-24T09:33:59;10.90;1.00
25933;DHT22;13731;51.166;4.474;2023-04-24T09:36:45;10.90;99.90
25933;DHT22;13731;51.166;4.474;2023-04-24T09:39:13;11.00;99.90
25933;DHT22;13731;51.166;4.474;2023-04-24T09:41:48;11.00;13.90
25933;DHT22;13731;51.166;4.474;2023-04-24T09:44:27;11.00;1.00
25933;DHT22;13731;51.166;4.474;2023-04-24T09:46:55;10.80;99.90
25933;DHT22;13731;51.166;4.474;2023-04-24T09:49:26;11.00;1.00
25933;DHT22;13731;51.166;4.474;2023-04-24T09:52:02;11.10;1.00
25933;DHT22;13731;51.166;4.474;2023-04-24T09:54:28;11.50;99.90
25933;DHT22;13731;51.166;4.474;2023-04-24T09:56:55;11.70;1.00
25933;DHT22;13731;51.166;4.474;2023-04-24T09:59:22;11.80;99.90
25933;DHT22;13731;51.166;4.474;2023-04-24T10:01:49;11.60;99.90
25933;DHT22;13731;51.166;4.474;2023-04-24T10:04:22;11.40;1.00
25933;DHT22;13731;51.166;4.474;2023-04-24T10:06:51;11.50;1.00
25933;DHT22;13731;51.166;4.474;2023-04-24T10:09:19;11.60;99.90
25933;DHT22;13731;51.166;4.474;2023-04-24T10:11:47;12.30;1.00
25933;DHT22;13731;51.166;4.474;2023-04-24T10:14:18;13.30;99.90
25933;DHT22;13731;51.166;4.474;2023-04-24T10:16:44;14.30;99.90
25933;DHT22;13731;51.166;4.474;2023-04-24T10:19:13;14.80;99.90
25933;DHT22;13731;51.166;4.474;2023-04-24T10:21:40;14.50;99.90
25933;DHT22;13731;51.166;4.474;2023-04-24T10:24:12;14.60;99.90
25933;DHT22;13731;51.166;4.474;2023-04-24T10:26:38;14.90;99.90
25933;DHT22;13731;51.166;4.474;2023-04-24T10:29:06;13.90;99.90
25933;DHT22;13731;51.166;4.474;2023-04-24T10:31:36;13.40;99.90
25933;DHT22;13731;51.166;4.474;2023-04-24T10:34:02;12.90;99.90
25933;DHT22;13731;51.166;4.474;2023-04-24T10:36:29;12.80;99.90
25933;DHT22;13731;51.166;4.474;2023-04-24T10:39:01;13.20;99.90
25933;DHT22;13731;51.166;4.474;2023-04-24T10:41:27;13.50;99.90
25933;DHT22;13731;51.166;4.474;2023-04-24T10:44:15;13.20;99.90
25933;DHT22;13731;51.166;4.474;2023-04-24T10:46:47;13.10;99.90
25933;DHT22;13731;51.166;4.474;2023-04-24T10:49:30;12.70;99.90
25933;DHT22;13731;51.166;4.474;2023-04-24T10:52:01;12.70;99.90
25933;DHT22;13731;51.166;4.474;2023-04-24T11:00:09;13.40;99.90
25933;DHT22;13731;51.166;4.474;2023-04-24T11:02:37;14.10;99.90
25933;DHT22;13731;51.166;4.474;2023-04-24T11:05:04;14.20;99.90
25933;DHT22;13731;51.166;4.474;2023-04-24T11:10:44;13.40;99.90
25933;DHT22;13731;51.166;4.474;2023-04-24T11:13:13;13.10;99.90
25933;DHT22;13731;51.166;4.474;2023-04-24T11:15:41;13.00;99.90
25933;DHT22;13731;51.166;4.474;2023-04-24T11:18:13;12.90;99.90
25933;DHT22;13731;51.166;4.474;2023-04-24T11:20:45;13.20;99.90
25933;DHT22;13731;51.166;4.474;2023-04-24T11:23:13;13.30;99.90
25933;DHT22;13731;51.166;4.474;2023-04-24T11:25:40;13.70;99.90
25933;DHT22;13731;51.166;4.474;2023-04-24T11:28:07;13.60;99.90
25933;DHT22;13731;51.166;4.474;2023-04-24T11:30:33;14.10;99.90
25933;DHT22;13731;51.166;4.474;2023-04-24T11:33:03;15.30;99.90
25933;DHT22;13731;51.166;4.474;2023-04-24T11:35:30;16.70;99.90
25933;DHT22;13731;51.166;4.474;2023-04-24T11:38:00;16.90;99.90
25933;DHT22;13731;51.166;4.474;2023-04-24T11:40:28;16.40;96.00
25933;DHT22;13731;51.166;4.474;2023-04-24T11:42:54;15.50;90.00
25933;DHT22;13731;51.166;4.474;2023-04-24T11:45:27;15.30;98.40
25933;DHT22;13731;51.166;4.474;2023-04-24T11:47:53;15.10;97.20
25933;DHT22;13731;51.166;4.474;2023-04-24T11:50:20;14.40;98.50
25933;DHT22;13731;51.166;4.474;2023-04-24T11:52:48;14.30;99.90
25933;DHT22;13731;51.166;4.474;2023-04-24T11:57:43;14.20;99.90
25933;DHT22;13731;51.166;4.474;2023-04-24T12:00:19;14.00;99.90
25933;DHT22;13731;51.166;4.474;2023-04-24T12:02:46;14.10;99.90
25933;DHT22;13731;51.166;4.474;2023-04-24T12:05:22;14.00;99.90
25933;DHT22;13731;51.166;4.474;2023-04-24T12:07:48;14.30;99.90
25933;DHT22;13731;51.166;4.474;2023-04-24T12:10:20;15.10;99.90
25933;DHT22;13731;51.166;4.474;2023-04-24T12:12:46;15.40;99.90
25933;DHT22;13731;51.166;4.474;2023-04-24T12:15:12;15.10;99.90
25933;DHT22;13731;51.166;4.474;2023-04-24T12:17:41;14.90;99.90
25933;DHT22;13731;51.166;4.474;2023-04-24T12:20:08;14.80;99.90
25933;DHT22;13731;51.166;4.474;2023-04-24T12:22:53;14.50;99.90
25933;DHT22;13731;51.166;4.474;2023-04-24T12:25:25;14.30;99.90
25933;DHT22;13731;51.166;4.474;2023-04-24T12:30:39;13.70;99.90
25933;DHT22;13731;51.166;4.474;2023-04-24T12:33:05;13.50;99.90
25933;DHT22;13731;51.166;4.474;2023-04-24T12:35:32;13.60;99.90
25933;DHT22;13731;51.166;4.474;2023-04-24T12:38:09;13.60;99.90
25933;DHT22;13731;51.166;4.474;2023-04-24T12:40:36;13.70;99.90
25933;DHT22;13731;51.166;4.474;2023-04-24T12:45:39;14.20;99.90
25933;DHT22;13731;51.166;4.474;2023-04-24T12:48:05;14.70;99.90
25933;DHT22;13731;51.166;4.474;2023-04-24T12:50:30;14.80;99.90
25933;DHT22;13731;51.166;4.474;2023-04-24T12:52:56;14.50;99.90
25933;DHT22;13731;51.166;4.474;2023-04-24T12:55:22;14.50;99.90
25933;DHT22;13731;51.166;4.474;2023-04-24T12:57:48;14.50;99.90
25933;DHT22;13731;51.166;4.474;2023-04-24T13:00:14;15.10;99.90
25933;DHT22;13731;51.166;4.474;2023-04-24T13:02:40;15.70;99.90
25933;DHT22;13731;51.166;4.474;2023-04-24T13:05:06;16.10;99.90
25933;DHT22;13731;51.166;4.474;2023-04-24T13:07:32;15.90;99.90
25933;DHT22;13731;51.166;4.474;2023-04-24T13:09:58;15.30;99.90
25933;DHT22;13731;51.166;4.474;2023-04-24T13:12:24;14.90;99.90
25933;DHT22;13731;51.166;4.474;2023-04-24T13:14:51;15.00;99.90
25933;DHT22;13731;51.166;4.474;2023-04-24T13:17:17;15.40;99.90
25933;DHT22;13731;51.166;4.474;2023-04-24T13:19:44;16.10;99.90
25933;DHT22;13731;51.166;4.474;2023-04-24T13:22:11;16.60;95.70
25933;DHT22;13731;51.166;4.474;2023-04-24T13:24:37;17.70;76.00
25933;DHT22;13731;51.166;4.474;2023-04-24T13:27:05;18.80;48.80
25933;DHT22;13731;51.166;4.474;2023-04-24T13:29:31;19.30;29.90
25933;DHT22;13731;51.166;4.474;2023-04-24T13:31:57;18.80;18.70
25933;DHT22;13731;51.166;4.474;2023-04-24T13:34:23;18.70;15.70
25933;DHT22;13731;51.166;4.474;2023-04-24T13:36:54;17.60;16.20
25933;DHT22;13731;51.166;4.474;2023-04-24T13:39:21;16.50;19.10
25933;DHT22;13731;51.166;4.474;2023-04-24T13:41:47;15.40;24.20
25933;DHT22;13731;51.166;4.474;2023-04-24T13:44:17;16.10;30.10
25933;DHT22;13731;51.166;4.474;2023-04-24T13:46:45;17.00;28.50
25933;DHT22;13731;51.166;4.474;2023-04-24T13:49:12;17.40;27.90
25933;DHT22;13731;51.166;4.474;2023-04-24T13:51:38;18.30;27.00
25933;DHT22;13731;51.166;4.474;2023-04-24T13:54:05;18.80;13.60
25933;DHT22;13731;51.166;4.474;2023-04-24T13:56:31;17.30;8.50
25933;DHT22;13731;51.166;4.474;2023-04-24T13:58:57;16.20;11.20
25933;DHT22;13731;51.166;4.474;2023-04-24T14:01:23;16.90;11.40
25933;DHT22;13731;51.166;4.474;2023-04-24T14:03:52;18.20;15.60
25933;DHT22;13731;51.166;4.474;2023-04-24T14:06:21;19.30;7.80
25933;DHT22;13731;51.166;4.474;2023-04-24T14:08:49;19.30;6.20
25933;DHT22;13731;51.166;4.474;2023-04-24T14:11:16;19.50;1.80
25933;DHT22;13731;51.166;4.474;2023-04-24T14:13:42;20.20;1.10
25933;DHT22;13731;51.166;4.474;2023-04-24T14:16:09;19.70;1.00
25933;DHT22;13731;51.166;4.474;2023-04-24T14:18:35;20.50;1.00
25933;DHT22;13731;51.166;4.474;2023-04-24T14:21:02;21.70;1.00
25933;DHT22;13731;51.166;4.474;2023-04-24T14:23:28;21.90;1.00
25933;DHT22;13731;51.166;4.474;2023-04-24T14:25:55;22.10;1.00
25933;DHT22;13731;51.166;4.474;2023-04-24T14:28:21;22.30;1.00
25933;DHT22;13731;51.166;4.474;2023-04-24T14:30:47;20.30;1.00
25933;DHT22;13731;51.166;4.474;2023-04-24T14:33:14;18.10;1.00
25933;DHT22;13731;51.166;4.474;2023-04-24T14:35:41;16.70;1.00
25933;DHT22;13731;51.166;4.474;2023-04-24T14:38:10;16.30;1.00
25933;DHT22;13731;51.166;4.474;2023-04-24T14:40:36;16.30;1.00
25933;DHT22;13731;51.166;4.474;2023-04-24T14:43:02;18.10;1.00
25933;DHT22;13731;51.166;4.474;2023-04-24T14:45:28;20.10;1.00
25933;DHT22;13731;51.166;4.474;2023-04-24T14:47:55;21.30;1.00
25933;DHT22;13731;51.166;4.474;2023-04-24T14:50:21;20.20;1.00
25933;DHT22;13731;51.166;4.474;2023-04-24T14:52:47;18.30;1.00
25933;DHT22;13731;51.166;4.474;2023-04-24T14:55:13;17.40;1.00
25933;DHT22;13731;51.166;4.474;2023-04-24T14:57:39;16.40;1.00
25933;DHT22;13731;51.166;4.474;2023-04-24T15:00:06;16.60;1.00
25933;DHT22;13731;51.166;4.474;2023-04-24T15:02:35;17.00;1.00
25933;DHT22;13731;51.166;4.474;2023-04-24T15:05:03;18.40;1.00
25933;DHT22;13731;51.166;4.474;2023-04-24T15:07:30;18.70;1.00
25933;DHT22;13731;51.166;4.474;2023-04-24T15:09:56;17.50;1.00
25933;DHT22;13731;51.166;4.474;2023-04-24T15:12:22;16.60;1.00
25933;DHT22;13731;51.166;4.474;2023-04-24T15:14:48;15.60;1.00
25933;DHT22;13731;51.166;4.474;2023-04-24T15:17:14;15.40;1.30
25933;DHT22;13731;51.166;4.474;2023-04-24T15:19:40;15.80;1.30
25933;DHT22;13731;51.166;4.474;2023-04-24T15:22:05;16.60;3.10
25933;DHT22;13731;51.166;4.474;2023-04-24T15:24:31;17.70;1.00
25933;DHT22;13731;51.166;4.474;2023-04-24T15:26:59;17.50;1.00
25933;DHT22;13731;51.166;4.474;2023-04-24T15:29:25;17.00;1.00
25933;DHT22;13731;51.166;4.474;2023-04-24T15:31:52;16.50;1.00
25933;DHT22;13731;51.166;4.474;2023-04-24T15:34:18;15.70;1.00
25933;DHT22;13731;51.166;4.474;2023-04-24T15:36:44;15.20;1.00
25933;DHT22;13731;51.166;4.474;2023-04-24T15:39:10;14.40;1.00
25933;DHT22;13731;51.166;4.474;2023-04-24T15:41:36;14.30;6.50
25933;DHT22;13731;51.166;4.474;2023-04-24T15:44:01;14.30;9.20
25933;DHT22;13731;51.166;4.474;2023-04-24T15:46:27;14.10;7.70
25933;DHT22;13731;51.166;4.474;2023-04-24T15:48:53;13.70;7.60
25933;DHT22;13731;51.166;4.474;2023-04-24T15:51:19;13.80;11.60
25933;DHT22;13731;51.166;4.474;2023-04-24T15:53:45;13.70;15.10
25933;DHT22;13731;51.166;4.474;2023-04-24T15:56:11;13.70;22.10
25933;DHT22;13731;51.166;4.474;2023-04-24T15:58:37;13.70;27.90
25933;DHT22;13731;51.166;4.474;2023-04-24T16:01:06;13.80;30.30